Time;durP1;ratioP1;P1;durP2;ratioP2;P2;SDS_P1;SDS_P2;PMS_P1;PMS_P2;Temp;Humidity;BMP_temperature;BMP_pressure;BME280_temperature;BME280_humidity;BME280_pressure;Samples;Min_cycle;Max_cycle;Signal;HPM_P1;HPM_P2
2022/12/13 00:01:50;;;;;;;64.95;29.63;;;-3.70;99.90;;;;;;5093799;28;20122;-46
2022/12/13 00:04:17;;;;;;;73.20;31.40;;;-3.70;99.90;;;;;;5093469;28;20105;-54
2022/12/13 00:06:43;;;;;;;60.47;29.63;;;-3.70;99.90;;;;;;5094734;28;20030;-52
2022/12/13 00:09:11;;;;;;;64.30;31.65;;;-3.70;99.90;;;;;;5095572;28;20430;-50
2022/12/13 00:11:37;;;;;;;69.63;29.88;;;-3.80;99.90;;;;;;5095782;28;20035;-50
2022/12/13 00:14:02;;;;;;;64.93;29.40;;;-3.80;99.90;;;;;;5093727;28;20484;-49
2022/12/13 00:16:28;;;;;;;60.38;30.13;;;-3.90;99.90;;;;;;5095126;28;20028;-50
2022/12/13 00:18:56;;;;;;;68.57;30.58;;;-3.90;99.90;;;;;;5095542;28;20062;-49
2022/12/13 00:21:24;;;;;;;66.75;31.65;;;-3.90;99.90;;;;;;5095803;28;20085;-51
2022/12/13 00:23:49;;;;;;;69.47;30.48;;;-3.90;99.90;;;;;;5094381;28;20499;-49
2022/12/13 00:26:22;;;;;;;65.05;31.98;;;-3.90;99.90;;;;;;5093796;28;20032;-50
2022/12/13 00:28:50;;;;;;;58.20;31.67;;;-3.90;99.90;;;;;;5095263;28;20031;-55
2022/12/13 00:31:16;;;;;;;65.85;30.70;;;-3.90;99.90;;;;;;5094988;28;20028;-48
2022/12/13 00:33:42;;;;;;;66.50;30.23;;;-3.90;99.90;;;;;;5096410;28;20036;-47
2022/12/13 00:36:08;;;;;;;74.40;30.70;;;-4.00;99.90;;;;;;5097909;28;20024;-52
2022/12/13 00:38:35;;;;;;;66.35;30.02;;;-4.00;99.90;;;;;;5097395;28;20024;-49
2022/12/13 00:41:13;;;;;;;65.82;30.83;;;-4.00;99.90;;;;;;5096793;28;20020;-48
2022/12/13 00:43:38;;;;;;;62.03;31.50;;;-4.00;99.90;;;;;;5096266;28;20402;-48
2022/12/13 00:46:05;;;;;;;65.93;29.48;;;-4.00;99.90;;;;;;5096635;28;20099;-45
2022/12/13 00:48:31;;;;;;;70.32;30.70;;;-4.10;99.90;;;;;;5096881;28;20039;-50
2022/12/13 00:50:56;;;;;;;60.42;28.80;;;-4.10;99.90;;;;;;5094715;28;20028;-55
2022/12/13 00:53:22;;;;;;;66.82;29.90;;;-4.10;99.90;;;;;;5096017;28;20039;-48
2022/12/13 00:55:47;;;;;;;67.30;29.75;;;-4.10;99.90;;;;;;5094178;28;20035;-51
2022/12/13 00:58:13;;;;;;;67.57;30.15;;;-4.10;99.90;;;;;;5095656;28;20031;-47
2022/12/13 01:00:38;;;;;;;59.00;27.10;;;-4.20;99.90;;;;;;5095121;28;20454;-48
2022/12/13 01:05:38;;;;;;;60.55;28.65;;;-4.20;99.90;;;;;;5066830;22;20056;-57
2022/12/13 01:08:03;;;;;;;55.17;27.80;;;-4.20;99.90;;;;;;5033808;28;20025;-55
2022/12/13 01:10:29;;;;;;;67.40;27.70;;;-4.20;99.90;;;;;;5033871;28;20496;-54
2022/12/13 01:12:54;;;;;;;59.75;27.17;;;-4.20;99.90;;;;;;5033140;28;20116;-54
2022/12/13 01:15:20;;;;;;;62.38;28.73;;;-4.20;99.90;;;;;;5051891;28;20380;-56
2022/12/13 01:17:46;;;;;;;61.35;28.98;;;-4.30;99.90;;;;;;5033713;28;20114;-57
2022/12/13 01:20:11;;;;;;;62.42;27.13;;;-4.30;99.90;;;;;;5051837;28;20028;-55
2022/12/13 01:22:37;;;;;;;60.72;28.55;;;-4.30;99.90;;;;;;5032878;28;20107;-57
2022/12/13 01:25:02;;;;;;;59.80;27.73;;;-4.40;99.90;;;;;;5051279;28;20025;-54
2022/12/13 01:27:28;;;;;;;60.45;28.50;;;-4.30;99.90;;;;;;5033499;28;20021;-57
2022/12/13 01:29:53;;;;;;;62.15;25.77;;;-4.40;99.90;;;;;;5051506;28;20386;-55
2022/12/13 01:32:19;;;;;;;61.08;28.17;;;-4.40;99.90;;;;;;5050650;28;20069;-54
2022/12/13 01:34:44;;;;;;;58.28;27.98;;;-4.40;99.90;;;;;;5051181;28;20106;-55
2022/12/13 01:37:10;;;;;;;53.50;26.83;;;-4.40;99.90;;;;;;5033540;28;20028;-56
2022/12/13 01:39:36;;;;;;;57.53;26.73;;;-4.40;99.90;;;;;;5051386;28;20033;-55
2022/12/13 01:42:03;;;;;;;65.47;27.13;;;-4.40;99.90;;;;;;5051348;28;20026;-53
2022/12/13 01:44:58;;;;;;;55.40;26.38;;;-4.40;99.90;;;;;;5051600;28;20013;-51
2022/12/13 01:47:32;;;;;;;54.53;26.88;;;-4.40;99.90;;;;;;5051486;28;20017;-51
2022/12/13 01:50:00;;;;;;;58.35;27.98;;;-4.40;99.90;;;;;;5051716;28;20515;-50
2022/12/13 01:52:28;;;;;;;52.85;26.85;;;-4.40;99.90;;;;;;5050802;28;20051;-55
2022/12/13 01:54:56;;;;;;;61.25;28.38;;;-4.50;99.90;;;;;;5051022;28;20021;-54
2022/12/13 01:57:22;;;;;;;57.08;27.45;;;-4.50;99.90;;;;;;5032962;28;20025;-55
2022/12/13 01:59:50;;;;;;;58.33;26.10;;;-4.60;99.90;;;;;;5051272;28;20025;-51
2022/12/13 02:02:15;;;;;;;54.88;25.58;;;-4.60;99.90;;;;;;5050867;28;20537;-56
2022/12/13 02:04:55;;;;;;;57.03;27.88;;;-4.60;99.90;;;;;;5045246;28;20043;-56
2022/12/13 02:07:26;;;;;;;54.30;25.58;;;-4.60;99.90;;;;;;5052372;28;20043;-53
2022/12/13 02:09:54;;;;;;;54.42;27.25;;;-4.60;99.90;;;;;;5054736;28;20024;-51
2022/12/13 02:12:20;;;;;;;50.85;26.25;;;-4.60;99.90;;;;;;5054118;28;20025;-54
2022/12/13 02:14:45;;;;;;;53.60;26.15;;;-4.60;99.90;;;;;;5054633;28;20017;-55
2022/12/13 02:17:16;;;;;;;51.45;25.63;;;-4.70;99.90;;;;;;5054712;28;20029;-51
2022/12/13 02:20:01;;;;;;;53.35;26.00;;;-4.70;99.90;;;;;;5053219;28;20021;-55
2022/12/13 02:22:54;;;;;;;58.13;26.90;;;-4.70;99.90;;;;;;5053909;28;20032;-56
2022/12/13 02:25:44;;;;;;;58.90;26.42;;;-4.70;99.90;;;;;;5053027;28;20029;-53
2022/12/13 02:28:40;;;;;;;61.90;26.15;;;-4.70;99.90;;;;;;5054543;28;20021;-57
2022/12/13 02:31:27;;;;;;;47.28;23.05;;;-4.70;99.90;;;;;;5054546;28;20430;-54
2022/12/13 02:34:07;;;;;;;54.45;25.55;;;-4.70;99.90;;;;;;5052594;28;20115;-54
2022/12/13 02:37:00;;;;;;;55.13;27.17;;;-4.70;99.90;;;;;;5054161;28;20021;-52
2022/12/13 02:39:38;;;;;;;53.60;24.88;;;-4.70;99.90;;;;;;5017520;28;20068;-53
2022/12/13 02:42:24;;;;;;;58.40;26.05;;;-4.60;99.90;;;;;;5053527;28;20117;-51
2022/12/13 02:45:15;;;;;;;53.00;23.02;;;-4.60;99.90;;;;;;5054427;28;20025;-53
2022/12/13 02:47:43;;;;;;;57.63;28.02;;;-4.60;99.90;;;;;;5043264;28;20065;-55
2022/12/13 02:50:12;;;;;;;51.42;24.77;;;-4.60;99.90;;;;;;5053995;28;20397;-57
2022/12/13 02:52:41;;;;;;;48.42;26.20;;;-4.60;99.90;;;;;;5053162;28;20032;-54
2022/12/13 02:55:10;;;;;;;57.45;27.35;;;-4.60;99.90;;;;;;5053779;28;20025;-57
2022/12/13 02:57:38;;;;;;;57.63;26.38;;;-4.50;99.90;;;;;;5052584;28;20512;-54
2022/12/13 03:00:14;;;;;;;52.45;24.23;;;-4.60;99.90;;;;;;5052439;28;20025;-52
2022/12/13 03:02:51;;;;;;;51.13;24.02;;;-4.50;99.90;;;;;;5053016;28;20028;-51
2022/12/13 03:08:23;;;;;;;55.65;24.75;;;-4.60;99.90;;;;;;5073877;28;20067;-57
2022/12/13 03:10:57;;;;;;;47.58;23.15;;;-4.50;99.90;;;;;;5073682;28;20031;-56
2022/12/13 03:13:38;;;;;;;50.25;25.15;;;-4.60;99.90;;;;;;5054564;28;20031;-57
2022/12/13 03:16:18;;;;;;;52.55;24.25;;;-4.70;99.90;;;;;;5073841;28;20020;-52
2022/12/13 03:18:45;;;;;;;46.35;22.70;;;-4.60;99.90;;;;;;5073537;28;20020;-57
2022/12/13 03:21:11;;;;;;;52.35;25.70;;;-4.70;99.90;;;;;;5073432;28;20028;-57
2022/12/13 03:23:37;;;;;;;53.92;25.45;;;-4.70;99.90;;;;;;5054863;28;20070;-54
2022/12/13 03:26:13;;;;;;;51.55;23.00;;;-4.70;99.90;;;;;;5055360;28;20020;-55
2022/12/13 03:28:39;;;;;;;53.65;25.63;;;-4.70;99.90;;;;;;5073462;28;20043;-56
2022/12/13 03:31:05;;;;;;;47.90;21.90;;;-4.70;99.90;;;;;;5073175;28;20024;-55
2022/12/13 03:33:31;;;;;;;53.35;25.58;;;-4.80;99.90;;;;;;5054396;28;20020;-54
2022/12/13 03:35:57;;;;;;;51.03;24.98;;;-4.80;99.90;;;;;;5073112;28;20111;-53
2022/12/13 03:38:23;;;;;;;53.75;26.17;;;-4.90;99.90;;;;;;5054116;28;20025;-52
2022/12/13 03:40:52;;;;;;;55.05;23.63;;;-4.90;99.90;;;;;;5072292;28;20032;-50
2022/12/13 03:43:18;;;;;;;60.55;27.85;;;-5.00;99.90;;;;;;5071491;28;20472;-55
2022/12/13 03:45:43;;;;;;;53.63;24.73;;;-5.00;99.90;;;;;;5054349;28;20106;-55
2022/12/13 03:48:09;;;;;;;54.35;26.02;;;-5.00;99.90;;;;;;5072185;28;20031;-55
2022/12/13 03:50:34;;;;;;;57.75;24.73;;;-5.00;99.90;;;;;;5072290;28;20082;-52
2022/12/13 03:53:01;;;;;;;52.92;22.75;;;-5.00;99.90;;;;;;5071677;28;20032;-49
2022/12/13 03:55:27;;;;;;;59.83;26.67;;;-5.10;99.90;;;;;;5072462;28;20032;-53
2022/12/13 03:57:53;;;;;;;55.30;25.52;;;-5.00;99.90;;;;;;5072420;28;20033;-54
2022/12/13 04:00:18;;;;;;;49.25;23.10;;;-5.00;99.90;;;;;;5072718;28;20488;-55
2022/12/13 04:02:44;;;;;;;54.55;24.05;;;-5.00;99.90;;;;;;5053943;28;20028;-54
2022/12/13 04:05:09;;;;;;;56.45;24.08;;;-5.00;99.90;;;;;;5054454;28;20064;-55
2022/12/13 04:07:35;;;;;;;59.40;23.88;;;-4.90;99.90;;;;;;5071232;28;20028;-56
2022/12/13 04:10:02;;;;;;;54.60;24.40;;;-4.90;99.90;;;;;;5072322;28;20024;-54
2022/12/13 04:15:11;;;;;;;61.65;25.80;;;-4.90;99.90;;;;;;5072501;28;20077;-50
2022/12/13 04:17:37;;;;;;;50.40;24.50;;;-5.00;99.90;;;;;;5072176;28;20489;-53
2022/12/13 04:20:02;;;;;;;53.50;23.55;;;-5.00;99.90;;;;;;5072146;28;20075;-56
2022/12/13 04:22:28;;;;;;;54.22;24.13;;;-5.00;99.90;;;;;;5053759;28;20167;-57
2022/12/13 04:24:53;;;;;;;56.38;24.48;;;-5.00;99.90;;;;;;5053391;28;20027;-52
2022/12/13 04:27:19;;;;;;;56.50;26.00;;;-5.00;99.90;;;;;;5072060;28;20024;-55
2022/12/13 04:29:44;;;;;;;54.95;24.98;;;-5.00;99.90;;;;;;5072063;28;20035;-55
2022/12/13 04:32:10;;;;;;;50.80;25.58;;;-5.00;99.90;;;;;;5053499;28;20434;-53
2022/12/13 04:34:35;;;;;;;55.78;24.27;;;-5.10;99.90;;;;;;5071685;28;20161;-54
2022/12/13 04:37:01;;;;;;;54.00;23.85;;;-5.00;99.90;;;;;;5071685;28;20130;-52
2022/12/13 04:39:26;;;;;;;52.20;23.77;;;-5.00;99.90;;;;;;5071703;28;20548;-53
2022/12/13 04:41:52;;;;;;;57.35;23.55;;;-5.00;99.90;;;;;;5071232;28;20054;-51
2022/12/13 04:44:18;;;;;;;51.08;23.35;;;-5.00;99.90;;;;;;5071376;28;20434;-51
2022/12/13 04:46:43;;;;;;;51.20;23.30;;;-5.00;99.90;;;;;;5053718;28;20054;-52
2022/12/13 04:49:09;;;;;;;60.58;26.38;;;-5.00;99.90;;;;;;5071556;28;20016;-52
2022/12/13 04:51:34;;;;;;;44.67;22.60;;;-5.00;99.90;;;;;;5071717;28;20362;-55
2022/12/13 04:54:00;;;;;;;49.33;23.95;;;-5.10;99.90;;;;;;5052858;28;20029;-53
2022/12/13 04:56:25;;;;;;;47.20;22.33;;;-5.10;99.90;;;;;;5071461;28;20036;-53
2022/12/13 04:58:51;;;;;;;55.63;25.45;;;-5.10;99.90;;;;;;5053624;28;20123;-52
2022/12/13 05:01:16;;;;;;;54.58;23.88;;;-5.10;99.90;;;;;;5071497;28;20403;-56
2022/12/13 05:03:42;;;;;;;59.67;24.23;;;-5.10;99.90;;;;;;5070454;28;20116;-55
2022/12/13 05:06:12;;;;;;;58.75;25.80;;;-5.20;99.90;;;;;;5069889;28;20021;-50
2022/12/13 05:08:38;;;;;;;54.95;24.02;;;-5.20;99.90;;;;;;5071558;28;20020;-50
2022/12/13 05:11:05;;;;;;;54.80;26.40;;;-5.20;99.90;;;;;;5071492;28;20036;-55
2022/12/13 05:13:31;;;;;;;48.97;23.65;;;-5.30;99.90;;;;;;5069958;28;20404;-54
2022/12/13 05:16:00;;;;;;;60.60;27.27;;;-5.20;99.90;;;;;;5071197;28;20043;-54
2022/12/13 05:18:26;;;;;;;57.60;25.50;;;-5.30;99.90;;;;;;5071310;28;20074;-55
2022/12/13 05:20:52;;;;;;;46.15;22.30;;;-5.30;99.90;;;;;;5071186;28;20064;-54
2022/12/13 05:23:19;;;;;;;57.05;24.42;;;-5.30;99.90;;;;;;5070833;28;20036;-55
2022/12/13 05:25:45;;;;;;;46.33;22.33;;;-5.40;99.90;;;;;;5071333;28;20048;-54
2022/12/13 05:28:11;;;;;;;46.75;23.13;;;-5.40;99.90;;;;;;5071121;28;20025;-55
2022/12/13 05:30:41;;;;;;;56.33;23.73;;;-5.40;99.90;;;;;;5071290;28;20035;-53
2022/12/13 05:33:08;;;;;;;50.42;24.42;;;-5.50;99.90;;;;;;5052597;28;20116;-53
2022/12/13 05:35:34;;;;;;;51.85;24.17;;;-5.50;99.90;;;;;;5071189;28;20025;-53
2022/12/13 05:37:59;;;;;;;51.08;22.70;;;-5.60;99.90;;;;;;5074733;28;20020;-54
2022/12/13 05:40:27;;;;;;;54.97;24.60;;;-5.60;99.90;;;;;;5057360;28;20051;-56
2022/12/13 05:42:53;;;;;;;50.67;24.92;;;-5.60;99.90;;;;;;5074568;28;20441;-50
2022/12/13 05:45:18;;;;;;;52.15;23.42;;;-5.60;99.90;;;;;;5057230;28;20055;-50
2022/12/13 05:47:44;;;;;;;54.60;24.35;;;-5.60;99.90;;;;;;5075235;28;20473;-54
2022/12/13 05:50:11;;;;;;;51.92;23.50;;;-5.70;99.90;;;;;;5075178;28;20060;-56
2022/12/13 05:52:37;;;;;;;53.38;22.45;;;-5.70;99.90;;;;;;5056327;28;20031;-56
2022/12/13 05:55:02;;;;;;;65.03;24.48;;;-5.80;99.90;;;;;;5074880;28;20095;-52
2022/12/13 05:57:28;;;;;;;61.72;26.05;;;-5.80;99.90;;;;;;5074713;28;20032;-51
2022/12/13 05:59:54;;;;;;;48.03;24.50;;;-5.80;99.90;;;;;;5056767;28;20503;-53
2022/12/13 06:02:20;;;;;;;58.75;24.63;;;-5.80;99.90;;;;;;5056055;28;20024;-56
2022/12/13 06:04:45;;;;;;;55.72;24.52;;;-5.80;99.90;;;;;;5074431;28;20082;-53
2022/12/13 06:07:11;;;;;;;53.35;23.38;;;-5.80;99.90;;;;;;5055217;28;20473;-52
2022/12/13 06:09:36;;;;;;;59.45;24.38;;;-5.80;99.90;;;;;;5074515;28;20369;-55
2022/12/13 06:12:02;;;;;;;53.65;25.42;;;-5.80;99.90;;;;;;5074002;28;20033;-56
2022/12/13 06:14:28;;;;;;;57.28;25.67;;;-5.80;99.90;;;;;;5074663;28;20029;-49
2022/12/13 06:16:54;;;;;;;47.33;22.67;;;-5.80;99.90;;;;;;5056528;28;20492;-53
2022/12/13 06:19:20;;;;;;;55.33;23.27;;;-5.80;99.90;;;;;;5074488;28;20024;-50
2022/12/13 06:21:46;;;;;;;54.78;25.35;;;-5.80;99.90;;;;;;5074088;28;20025;-58
2022/12/13 06:24:16;;;;;;;54.90;25.75;;;-5.80;99.90;;;;;;5073899;28;20043;-52
2022/12/13 06:26:42;;;;;;;56.25;25.98;;;-5.80;99.90;;;;;;5074243;28;20029;-49
2022/12/13 06:29:09;;;;;;;51.83;22.20;;;-5.80;99.90;;;;;;5074437;28;20090;-55
2022/12/13 06:31:34;;;;;;;53.40;23.30;;;-5.80;99.90;;;;;;5056183;28;20047;-52
2022/12/13 06:34:01;;;;;;;53.95;23.70;;;-5.80;99.90;;;;;;5073392;28;20468;-52
2022/12/13 06:36:27;;;;;;;59.47;24.27;;;-5.80;99.90;;;;;;5074001;28;20027;-54
2022/12/13 06:38:52;;;;;;;51.20;22.60;;;-5.80;99.90;;;;;;5074112;28;20035;-51
2022/12/13 06:41:18;;;;;;;59.05;22.55;;;-5.80;99.90;;;;;;5055986;28;20032;-57
2022/12/13 06:43:45;;;;;;;53.20;23.67;;;-5.80;99.90;;;;;;5073184;28;20476;-54
2022/12/13 06:46:11;;;;;;;55.40;23.17;;;-5.80;99.90;;;;;;5074128;28;20024;-53
2022/12/13 06:48:39;;;;;;;49.28;21.45;;;-5.90;99.90;;;;;;5073039;28;20025;-50
2022/12/13 06:51:05;;;;;;;62.88;26.77;;;-5.90;99.90;;;;;;5073850;28;20432;-56
2022/12/13 06:53:32;;;;;;;55.45;22.13;;;-5.90;99.90;;;;;;5072938;28;20025;-55
2022/12/13 06:56:06;;;;;;;58.53;24.92;;;-5.80;99.90;;;;;;5073904;28;20526;-51
2022/12/13 06:58:33;;;;;;;56.67;22.95;;;-5.80;99.90;;;;;;5073521;28;20029;-54
2022/12/13 07:01:07;;;;;;;59.67;24.40;;;-5.80;99.90;;;;;;5073619;28;20094;-54
2022/12/13 07:03:33;;;;;;;62.13;25.30;;;-5.80;99.90;;;;;;5072424;28;20032;-55
2022/12/13 07:06:02;;;;;;;51.63;24.30;;;-5.80;99.90;;;;;;5093523;22;20048;-49
2022/12/13 07:08:28;;;;;;;59.50;24.35;;;-5.80;99.90;;;;;;5073821;28;20075;-48
2022/12/13 07:10:54;;;;;;;59.10;24.30;;;-5.70;99.90;;;;;;5073706;28;20029;-47
2022/12/13 07:13:20;;;;;;;61.88;26.02;;;-5.80;99.90;;;;;;5072930;28;20484;-51
2022/12/13 07:15:46;;;;;;;52.25;24.58;;;-5.80;99.90;;;;;;5073597;28;20036;-51
2022/12/13 07:18:12;;;;;;;59.25;22.33;;;-5.70;99.90;;;;;;5073941;28;20028;-50
2022/12/13 07:20:42;;;;;;;67.00;25.35;;;-5.70;99.90;;;;;;5073309;28;20036;-50
2022/12/13 07:23:08;;;;;;;50.03;22.48;;;-5.60;99.90;;;;;;5072747;28;20059;-50
2022/12/13 07:25:34;;;;;;;59.58;26.30;;;-5.70;99.90;;;;;;5073486;28;20512;-46
2022/12/13 07:28:02;;;;;;;53.97;22.58;;;-5.70;99.90;;;;;;5073357;28;20103;-53
2022/12/13 07:30:28;;;;;;;59.08;23.90;;;-5.70;99.90;;;;;;5073396;28;20074;-49
2022/12/13 07:32:53;;;;;;;48.35;22.13;;;-5.70;99.90;;;;;;5073174;28;20029;-45
2022/12/13 07:35:19;;;;;;;49.05;21.60;;;-5.70;99.90;;;;;;5093348;28;20073;-46
2022/12/13 07:37:44;;;;;;;56.38;25.17;;;-5.70;99.90;;;;;;5092906;28;20024;-51
2022/12/13 07:40:10;;;;;;;51.90;23.15;;;-5.70;99.90;;;;;;5093446;28;20103;-46
2022/12/13 07:42:36;;;;;;;55.28;23.83;;;-5.60;99.90;;;;;;5092926;28;20020;-49
2022/12/13 07:45:01;;;;;;;57.17;24.50;;;-5.60;99.90;;;;;;5093408;28;20024;-48
2022/12/13 07:47:31;;;;;;;51.10;23.85;;;-5.70;99.90;;;;;;5093067;28;20020;-50
2022/12/13 07:49:57;;;;;;;57.65;24.42;;;-5.70;99.90;;;;;;5093308;28;20016;-50
2022/12/13 07:52:23;;;;;;;51.65;24.30;;;-5.70;99.90;;;;;;5092500;28;20368;-48
2022/12/13 07:54:49;;;;;;;52.50;23.00;;;-5.60;99.90;;;;;;5093432;28;20023;-47
2022/12/13 07:57:14;;;;;;;50.03;23.30;;;-5.60;99.90;;;;;;5092867;28;20028;-48
2022/12/13 07:59:40;;;;;;;59.00;26.02;;;-5.60;99.90;;;;;;5091995;28;20031;-50
2022/12/13 08:02:08;;;;;;;55.47;23.30;;;-5.60;99.90;;;;;;5090483;28;20032;-52
2022/12/13 08:04:33;;;;;;;55.78;24.38;;;-5.50;99.90;;;;;;5092457;28;20035;-47
2022/12/13 08:06:59;;;;;;;52.00;24.90;;;-5.60;99.90;;;;;;5092967;28;20475;-54
2022/12/13 08:09:27;;;;;;;50.50;22.75;;;-5.50;99.90;;;;;;5092786;28;20081;-50
2022/12/13 08:11:52;;;;;;;54.25;24.85;;;-5.50;99.90;;;;;;5090804;28;20058;-46
2022/12/13 08:14:17;;;;;;;55.50;23.33;;;-5.40;99.90;;;;;;5092256;28;20081;-47
2022/12/13 08:16:43;;;;;;;50.72;24.67;;;-5.40;99.90;;;;;;5091370;28;20028;-45
2022/12/13 08:19:09;;;;;;;49.88;22.95;;;-5.30;99.90;;;;;;5091255;28;20028;-50
2022/12/13 08:21:36;;;;;;;57.60;23.75;;;-5.20;99.90;;;;;;5092660;28;20016;-46
2022/12/13 08:24:02;;;;;;;50.60;22.65;;;-5.20;99.90;;;;;;5092097;28;20538;-48
2022/12/13 08:26:27;;;;;;;54.70;23.67;;;-5.10;99.90;;;;;;5092390;28;20024;-47
2022/12/13 08:28:53;;;;;;;51.63;21.50;;;-5.20;99.90;;;;;;5092530;28;20024;-41
2022/12/13 08:31:18;;;;;;;55.70;22.45;;;-5.20;99.90;;;;;;5092511;28;20056;-46
2022/12/13 08:33:46;;;;;;;48.15;22.10;;;-5.10;99.90;;;;;;5090461;28;20030;-46
2022/12/13 08:36:15;;;;;;;49.40;21.30;;;-5.10;99.90;;;;;;5092379;28;20467;-48
2022/12/13 08:38:41;;;;;;;46.13;19.55;;;-5.10;99.90;;;;;;5092618;28;20055;-46
2022/12/13 08:41:08;;;;;;;41.00;19.70;;;-5.00;99.90;;;;;;5091498;28;20024;-46
2022/12/13 08:43:34;;;;;;;52.38;21.95;;;-5.00;99.90;;;;;;5091991;28;20452;-46
2022/12/13 08:46:00;;;;;;;49.38;22.10;;;-4.90;99.90;;;;;;5092618;28;20046;-51
2022/12/13 08:48:25;;;;;;;46.63;22.15;;;-4.80;99.90;;;;;;5090671;28;20020;-48
2022/12/13 08:50:51;;;;;;;46.17;21.45;;;-4.50;99.90;;;;;;5090892;28;20035;-49
2022/12/13 08:53:16;;;;;;;40.15;20.08;;;-4.00;99.90;;;;;;5091375;28;20504;-49
2022/12/13 08:55:42;;;;;;;40.58;19.98;;;-3.40;99.90;;;;;;5091703;28;20044;-44
2022/12/13 08:58:08;;;;;;;38.92;20.10;;;-3.00;99.90;;;;;;5092070;28;20024;-51
2022/12/13 09:00:35;;;;;;;35.15;19.25;;;-2.50;99.90;;;;;;5090676;28;20030;-49
2022/12/13 09:03:04;;;;;;;38.40;20.33;;;-2.10;99.90;;;;;;5091092;28;20484;-51
2022/12/13 09:05:30;;;;;;;39.88;19.88;;;-1.70;99.90;;;;;;5091956;28;20063;-51
2022/12/13 09:07:57;;;;;;;35.00;19.25;;;-1.40;99.90;;;;;;5091711;28;20392;-49
2022/12/13 09:10:22;;;;;;;34.47;17.65;;;-1.00;99.90;;;;;;5091646;28;20024;-49
2022/12/13 09:12:48;;;;;;;36.38;18.38;;;-0.50;99.90;;;;;;5090860;28;20104;-49
2022/12/13 09:15:14;;;;;;;34.15;17.98;;;-0.50;99.90;;;;;;5091204;28;20503;-54
2022/12/13 09:17:39;;;;;;;35.70;18.13;;;-0.70;99.90;;;;;;5091352;28;20144;-49
2022/12/13 09:20:08;;;;;;;37.40;20.08;;;-0.50;99.90;;;;;;5091635;28;20555;-53
2022/12/13 09:22:35;;;;;;;32.25;17.50;;;-0.10;99.90;;;;;;5089428;28;20051;-47
2022/12/13 09:25:02;;;;;;;35.28;18.85;;;0.10;99.90;;;;;;5089699;28;20097;-46
2022/12/13 09:27:29;;;;;;;32.30;17.92;;;0.20;99.90;;;;;;5091418;28;20460;-47
2022/12/13 09:29:54;;;;;;;33.78;18.05;;;0.50;99.90;;;;;;5091267;28;20028;-47
2022/12/13 09:32:20;;;;;;;32.75;19.27;;;0.40;99.90;;;;;;5090498;28;20061;-52
2022/12/13 09:34:46;;;;;;;33.55;18.52;;;0.60;99.90;;;;;;5091072;28;20021;-47
2022/12/13 09:37:12;;;;;;;37.13;19.27;;;0.80;99.90;;;;;;5091259;28;20028;-49
2022/12/13 09:39:38;;;;;;;35.35;18.60;;;0.50;99.90;;;;;;5091319;28;20463;-48
2022/12/13 09:42:08;;;;;;;33.45;17.52;;;0.50;99.90;;;;;;5090625;28;20035;-46
2022/12/13 09:44:37;;;;;;;35.10;18.08;;;0.40;99.90;;;;;;5091303;28;20020;-47
2022/12/13 09:47:08;;;;;;;36.85;19.95;;;0.10;99.90;;;;;;5091137;28;20066;-50
2022/12/13 09:49:37;;;;;;;32.13;18.73;;;-0.30;99.90;;;;;;5091318;28;20138;-49
2022/12/13 09:52:05;;;;;;;28.77;16.92;;;-0.20;99.90;;;;;;5090439;28;20027;-47
2022/12/13 09:54:32;;;;;;;36.85;18.95;;;0.20;99.90;;;;;;5091140;28;20032;-50
2022/12/13 09:56:58;;;;;;;42.72;20.00;;;-0.10;99.90;;;;;;5091571;28;20031;-47
2022/12/13 09:59:33;;;;;;;36.30;18.95;;;-0.30;99.90;;;;;;5091157;28;20067;-46
2022/12/13 10:02:31;;;;;;;41.10;19.88;;;-0.40;99.90;;;;;;5090380;28;20024;-49
2022/12/13 10:05:14;;;;;;;34.88;17.80;;;-0.50;99.90;;;;;;5090166;28;20040;-45
2022/12/13 10:07:40;;;;;;;33.25;17.65;;;-0.60;99.90;;;;;;5091008;28;20484;-49
2022/12/13 10:10:10;;;;;;;36.33;19.73;;;-0.60;99.90;;;;;;5091065;28;20394;-50
2022/12/13 10:12:37;;;;;;;38.28;19.63;;;-0.70;99.90;;;;;;5090571;28;20020;-46
2022/12/13 10:15:04;;;;;;;32.28;18.20;;;-0.80;99.90;;;;;;5090862;28;20398;-48
2022/12/13 10:17:35;;;;;;;35.47;19.58;;;-1.10;99.90;;;;;;5091112;28;20077;-51
2022/12/13 10:20:02;;;;;;;42.28;20.20;;;-1.40;99.90;;;;;;5089660;28;20492;-46
2022/12/13 10:22:28;;;;;;;34.97;18.80;;;-1.50;99.90;;;;;;5081424;28;20480;-46
2022/12/13 10:24:54;;;;;;;33.92;18.48;;;-1.30;99.90;;;;;;5086576;28;20078;-49
2022/12/13 10:27:26;;;;;;;34.20;16.77;;;-1.10;99.90;;;;;;5095034;28;20024;-50
2022/12/13 10:30:19;;;;;;;38.78;19.67;;;-1.00;99.90;;;;;;5093301;28;20028;-52
2022/12/13 10:32:58;;;;;;;31.52;17.70;;;-0.60;99.90;;;;;;5092204;28;20488;-46
2022/12/13 10:35:37;;;;;;;31.10;17.58;;;-0.20;99.90;;;;;;5093807;28;20100;-49
2022/12/13 10:38:15;;;;;;;32.83;17.95;;;-0.10;99.90;;;;;;5093437;28;20412;-45
2022/12/13 10:40:47;;;;;;;35.33;18.42;;;0.00;99.90;;;;;;5094722;28;20115;-47
2022/12/13 10:43:16;;;;;;;30.48;17.50;;;0.10;99.90;;;;;;5093989;28;20024;-49
2022/12/13 10:45:43;;;;;;;30.13;17.33;;;0.30;99.90;;;;;;5094573;28;20422;-48
2022/12/13 10:48:20;;;;;;;29.50;17.17;;;0.30;99.90;;;;;;5094510;28;20361;-47
2022/12/13 10:51:08;;;;;;;30.55;17.45;;;0.40;99.90;;;;;;5094568;28;20035;-48
2022/12/13 10:53:50;;;;;;;30.27;17.95;;;0.50;99.90;;;;;;5092147;28;20028;-46
2022/12/13 10:56:17;;;;;;;29.67;16.55;;;0.40;99.90;;;;;;5094554;28;20065;-48
2022/12/13 10:58:51;;;;;;;33.35;17.45;;;0.10;99.90;;;;;;5094201;28;20487;-46
2022/12/13 11:01:17;;;;;;;32.75;18.58;;;-0.20;99.90;;;;;;5094063;28;20529;-43
2022/12/13 11:03:54;;;;;;;32.95;18.13;;;-0.30;99.90;;;;;;5093349;28;20020;-45
2022/12/13 11:06:19;;;;;;;28.80;17.45;;;-0.40;99.90;;;;;;5093936;28;20031;-47
2022/12/13 11:08:45;;;;;;;33.67;18.00;;;-0.40;99.90;;;;;;5092716;28;20073;-48
2022/12/13 11:11:11;;;;;;;35.38;18.13;;;-0.60;99.90;;;;;;5094025;28;20027;-48
2022/12/13 11:13:42;;;;;;;38.55;18.25;;;-0.90;99.90;;;;;;5093565;28;20031;-50
2022/12/13 11:16:19;;;;;;;31.98;18.20;;;-0.90;99.90;;;;;;5092350;28;20036;-47
2022/12/13 11:18:52;;;;;;;29.02;16.10;;;-0.80;99.90;;;;;;5094125;28;20095;-47
2022/12/13 11:21:33;;;;;;;32.28;16.05;;;-1.00;99.90;;;;;;5094177;28;20027;-49
2022/12/13 11:24:07;;;;;;;33.75;16.30;;;-1.00;99.90;;;;;;5093327;28;20433;-51
2022/12/13 11:26:36;;;;;;;33.80;18.25;;;-1.00;99.90;;;;;;5091804;28;20395;-52
2022/12/13 11:29:36;;;;;;;30.45;15.73;;;-1.10;99.90;;;;;;5093513;28;20141;-48
2022/12/13 11:32:12;;;;;;;31.48;16.13;;;-1.10;99.90;;;;;;5092636;28;20403;-49
2022/12/13 11:34:49;;;;;;;29.50;16.45;;;-1.20;99.90;;;;;;5093319;28;20570;-50
2022/12/13 11:37:24;;;;;;;32.20;16.85;;;-1.20;99.90;;;;;;5093626;28;20028;-48
2022/12/13 11:39:54;;;;;;;28.20;16.27;;;-1.20;99.90;;;;;;5093864;28;20061;-52
2022/12/13 11:42:40;;;;;;;29.80;15.88;;;-1.20;99.90;;;;;;5092473;28;20403;-48
2022/12/13 11:45:20;;;;;;;31.27;16.85;;;-1.30;99.90;;;;;;5093352;28;20016;-47
2022/12/13 11:47:54;;;;;;;30.35;16.83;;;-1.30;99.90;;;;;;5093909;28;20093;-48
2022/12/13 11:50:27;;;;;;;30.65;16.50;;;-1.40;99.90;;;;;;5093880;28;20020;-49
2022/12/13 11:52:56;;;;;;;28.33;16.20;;;-1.30;99.90;;;;;;5093010;28;20021;-51
2022/12/13 11:55:36;;;;;;;34.45;16.60;;;-1.30;99.90;;;;;;5091842;28;20076;-48
2022/12/13 11:58:13;;;;;;;31.98;15.27;;;-1.40;99.90;;;;;;5093485;28;20028;-51
2022/12/13 12:00:49;;;;;;;31.25;15.18;;;-1.40;99.90;;;;;;5092895;28;20569;-48
2022/12/13 12:03:18;;;;;;;35.65;18.45;;;-1.30;99.90;;;;;;5074577;28;20029;-47
2022/12/13 12:05:59;;;;;;;26.67;15.00;;;-1.40;99.90;;;;;;5072644;28;20044;-48
2022/12/13 12:08:51;;;;;;;32.83;16.63;;;-1.40;99.90;;;;;;5073032;28;20104;-48
2022/12/13 12:11:29;;;;;;;29.00;15.18;;;-1.40;99.90;;;;;;5072083;28;20052;-46
2022/12/13 12:14:04;;;;;;;29.48;17.90;;;-1.30;99.90;;;;;;5072423;28;20396;-50
2022/12/13 12:16:41;;;;;;;33.15;17.02;;;-1.30;99.90;;;;;;5072430;28;20107;-52
2022/12/13 12:19:13;;;;;;;27.23;15.50;;;-1.20;99.90;;;;;;5072491;28;20418;-49
2022/12/13 12:22:06;;;;;;;32.50;16.10;;;-1.20;99.90;;;;;;5072351;28;20048;-50
2022/12/13 12:25:12;;;;;;;32.10;15.70;;;-1.20;99.90;;;;;;5070915;28;20020;-49
2022/12/13 12:27:56;;;;;;;26.75;14.95;;;-1.20;99.90;;;;;;5072172;28;20020;-53
2022/12/13 12:30:26;;;;;;;26.48;15.15;;;-1.30;99.90;;;;;;5072281;28;20373;-54
2022/12/13 12:33:17;;;;;;;25.92;15.88;;;-1.30;99.90;;;;;;5071303;28;20438;-52
2022/12/13 12:36:12;;;;;;;29.17;14.15;;;-1.20;99.90;;;;;;5071627;28;20073;-54
2022/12/13 12:39:07;;;;;;;29.45;15.05;;;-1.20;99.90;;;;;;5071719;28;20017;-50
2022/12/13 12:41:45;;;;;;;27.23;14.38;;;-1.10;99.90;;;;;;5071989;28;20029;-54
2022/12/13 12:44:35;;;;;;;28.10;14.52;;;-1.10;99.90;;;;;;5072662;28;20021;-53
2022/12/13 12:47:04;;;;;;;24.50;14.18;;;-1.10;99.90;;;;;;5071496;28;20523;-52
2022/12/13 12:50:04;;;;;;;27.33;13.93;;;-1.10;99.90;;;;;;5072323;28;20104;-54